sensor_id;sensor_type;location;lat;lon;timestamp;P1;durP1;ratioP1;P2;durP2;ratioP2
4595;SDS011;2310;49.978;8.742;2023-03-23T00:03:18;3.03;;;1.40;;
4595;SDS011;2310;49.978;8.742;2023-03-23T00:07:21;2.80;;;1.30;;
4595;SDS011;2310;49.978;8.742;2023-03-23T00:11:26;3.23;;;1.53;;
4595;SDS011;2310;49.978;8.742;2023-03-23T00:15:31;3.20;;;1.27;;
4595;SDS011;2310;49.978;8.742;2023-03-23T00:19:33;3.13;;;1.90;;
4595;SDS011;2310;49.978;8.742;2023-03-23T00:23:34;5.37;;;2.00;;
4595;SDS011;2310;49.978;8.742;2023-03-23T00:27:35;3.87;;;1.67;;
4595;SDS011;2310;49.978;8.742;2023-03-23T00:31:36;2.87;;;1.60;;
4595;SDS011;2310;49.978;8.742;2023-03-23T00:35:37;4.43;;;1.37;;
4595;SDS011;2310;49.978;8.742;2023-03-23T00:39:37;3.30;;;1.70;;
4595;SDS011;2310;49.978;8.742;2023-03-23T00:43:41;3.37;;;1.90;;
4595;SDS011;2310;49.978;8.742;2023-03-23T00:47:42;3.00;;;1.53;;
4595;SDS011;2310;49.978;8.742;2023-03-23T00:51:44;3.77;;;1.50;;
4595;SDS011;2310;49.978;8.742;2023-03-23T00:55:46;4.73;;;1.93;;
4595;SDS011;2310;49.978;8.742;2023-03-23T00:59:48;4.17;;;2.20;;
4595;SDS011;2310;49.978;8.742;2023-03-23T01:03:49;3.47;;;1.80;;
4595;SDS011;2310;49.978;8.742;2023-03-23T01:07:50;2.90;;;1.40;;
4595;SDS011;2310;49.978;8.742;2023-03-23T01:11:50;3.47;;;1.70;;
4595;SDS011;2310;49.978;8.742;2023-03-23T01:15:51;2.93;;;1.10;;
4595;SDS011;2310;49.978;8.742;2023-03-23T01:19:52;3.43;;;1.70;;
4595;SDS011;2310;49.978;8.742;2023-03-23T01:23:53;2.60;;;1.40;;
4595;SDS011;2310;49.978;8.742;2023-03-23T01:27:54;3.70;;;1.87;;
4595;SDS011;2310;49.978;8.742;2023-03-23T01:31:54;3.63;;;2.10;;
4595;SDS011;2310;49.978;8.742;2023-03-23T01:35:55;3.63;;;1.80;;
4595;SDS011;2310;49.978;8.742;2023-03-23T01:39:56;3.40;;;1.70;;
4595;SDS011;2310;49.978;8.742;2023-03-23T01:48:35;3.50;;;1.90;;
4595;SDS011;2310;49.978;8.742;2023-03-23T01:52:38;3.23;;;1.80;;
4595;SDS011;2310;49.978;8.742;2023-03-23T01:56:41;3.93;;;1.73;;
4595;SDS011;2310;49.978;8.742;2023-03-23T02:00:45;2.67;;;1.83;;
4595;SDS011;2310;49.978;8.742;2023-03-23T02:04:48;3.43;;;1.90;;
4595;SDS011;2310;49.978;8.742;2023-03-23T02:08:49;3.40;;;1.90;;
4595;SDS011;2310;49.978;8.742;2023-03-23T02:12:51;4.17;;;2.10;;
4595;SDS011;2310;49.978;8.742;2023-03-23T02:16:58;3.33;;;1.60;;
4595;SDS011;2310;49.978;8.742;2023-03-23T02:21:12;4.30;;;2.97;;
4595;SDS011;2310;49.978;8.742;2023-03-23T02:29:50;3.97;;;2.57;;
4595;SDS011;2310;49.978;8.742;2023-03-23T02:34:18;4.80;;;2.57;;
4595;SDS011;2310;49.978;8.742;2023-03-23T02:38:28;3.87;;;2.03;;
4595;SDS011;2310;49.978;8.742;2023-03-23T02:42:33;3.60;;;1.90;;
4595;SDS011;2310;49.978;8.742;2023-03-23T02:46:37;3.40;;;1.90;;
4595;SDS011;2310;49.978;8.742;2023-03-23T02:50:38;3.97;;;1.80;;
4595;SDS011;2310;49.978;8.742;2023-03-23T02:54:43;4.53;;;2.17;;
4595;SDS011;2310;49.978;8.742;2023-03-23T02:58:45;4.17;;;2.20;;
4595;SDS011;2310;49.978;8.742;2023-03-23T03:02:47;2.90;;;1.60;;
4595;SDS011;2310;49.978;8.742;2023-03-23T03:07:06;5.50;;;1.93;;
4595;SDS011;2310;49.978;8.742;2023-03-23T03:11:07;3.50;;;1.70;;
4595;SDS011;2310;49.978;8.742;2023-03-23T03:15:12;3.83;;;2.53;;
4595;SDS011;2310;49.978;8.742;2023-03-23T03:23:22;5.27;;;2.60;;
4595;SDS011;2310;49.978;8.742;2023-03-23T03:27:25;4.00;;;2.13;;
4595;SDS011;2310;49.978;8.742;2023-03-23T03:31:29;3.63;;;1.90;;
4595;SDS011;2310;49.978;8.742;2023-03-23T03:35:36;3.50;;;2.17;;
4595;SDS011;2310;49.978;8.742;2023-03-23T03:39:39;3.53;;;1.87;;
4595;SDS011;2310;49.978;8.742;2023-03-23T03:43:40;3.37;;;1.90;;
4595;SDS011;2310;49.978;8.742;2023-03-23T03:47:41;4.47;;;2.03;;
4595;SDS011;2310;49.978;8.742;2023-03-23T03:51:42;3.43;;;2.00;;
4595;SDS011;2310;49.978;8.742;2023-03-23T03:55:43;3.50;;;1.93;;
4595;SDS011;2310;49.978;8.742;2023-03-23T03:59:45;2.93;;;1.40;;
4595;SDS011;2310;49.978;8.742;2023-03-23T04:03:48;5.13;;;2.00;;
4595;SDS011;2310;49.978;8.742;2023-03-23T04:07:49;2.97;;;1.77;;
4595;SDS011;2310;49.978;8.742;2023-03-23T04:11:51;4.40;;;1.77;;
4595;SDS011;2310;49.978;8.742;2023-03-23T04:15:52;4.03;;;2.03;;
4595;SDS011;2310;49.978;8.742;2023-03-23T04:19:53;3.07;;;1.37;;
4595;SDS011;2310;49.978;8.742;2023-03-23T04:23:57;3.00;;;1.60;;
4595;SDS011;2310;49.978;8.742;2023-03-23T04:28:01;2.97;;;1.63;;
4595;SDS011;2310;49.978;8.742;2023-03-23T04:32:02;3.13;;;1.77;;
4595;SDS011;2310;49.978;8.742;2023-03-23T04:36:03;4.13;;;1.80;;
4595;SDS011;2310;49.978;8.742;2023-03-23T04:40:08;4.07;;;2.10;;
4595;SDS011;2310;49.978;8.742;2023-03-23T04:44:12;4.60;;;2.13;;
4595;SDS011;2310;49.978;8.742;2023-03-23T04:48:15;3.23;;;1.77;;
4595;SDS011;2310;49.978;8.742;2023-03-23T04:52:15;4.20;;;1.73;;
4595;SDS011;2310;49.978;8.742;2023-03-23T04:56:16;3.60;;;2.00;;
4595;SDS011;2310;49.978;8.742;2023-03-23T05:00:17;3.83;;;2.20;;
4595;SDS011;2310;49.978;8.742;2023-03-23T05:04:21;4.00;;;1.50;;
4595;SDS011;2310;49.978;8.742;2023-03-23T05:08:23;3.20;;;1.97;;
4595;SDS011;2310;49.978;8.742;2023-03-23T05:12:27;5.07;;;1.97;;
4595;SDS011;2310;49.978;8.742;2023-03-23T05:16:27;4.50;;;2.20;;
4595;SDS011;2310;49.978;8.742;2023-03-23T05:20:29;3.50;;;2.00;;
4595;SDS011;2310;49.978;8.742;2023-03-23T05:24:30;3.33;;;1.63;;
4595;SDS011;2310;49.978;8.742;2023-03-23T05:28:33;3.33;;;1.80;;
4595;SDS011;2310;49.978;8.742;2023-03-23T05:32:33;2.93;;;1.83;;
4595;SDS011;2310;49.978;8.742;2023-03-23T05:36:34;3.30;;;1.90;;
4595;SDS011;2310;49.978;8.742;2023-03-23T05:40:35;3.17;;;2.17;;
4595;SDS011;2310;49.978;8.742;2023-03-23T05:44:36;2.77;;;1.70;;
4595;SDS011;2310;49.978;8.742;2023-03-23T05:48:37;3.83;;;2.20;;
4595;SDS011;2310;49.978;8.742;2023-03-23T05:52:38;3.90;;;2.00;;
4595;SDS011;2310;49.978;8.742;2023-03-23T05:56:40;5.73;;;2.33;;
4595;SDS011;2310;49.978;8.742;2023-03-23T06:00:41;3.80;;;2.07;;
4595;SDS011;2310;49.978;8.742;2023-03-23T06:04:43;4.83;;;2.40;;
4595;SDS011;2310;49.978;8.742;2023-03-23T06:08:43;3.33;;;1.90;;
4595;SDS011;2310;49.978;8.742;2023-03-23T06:12:44;3.60;;;1.87;;
4595;SDS011;2310;49.978;8.742;2023-03-23T06:16:45;4.57;;;2.20;;
4595;SDS011;2310;49.978;8.742;2023-03-23T06:20:46;5.10;;;2.90;;
4595;SDS011;2310;49.978;8.742;2023-03-23T06:24:47;4.63;;;2.00;;
4595;SDS011;2310;49.978;8.742;2023-03-23T06:28:49;4.17;;;2.63;;
4595;SDS011;2310;49.978;8.742;2023-03-23T06:32:51;4.20;;;1.87;;
4595;SDS011;2310;49.978;8.742;2023-03-23T06:36:52;3.97;;;2.30;;
4595;SDS011;2310;49.978;8.742;2023-03-23T06:40:54;3.93;;;2.23;;
4595;SDS011;2310;49.978;8.742;2023-03-23T06:44:55;3.00;;;1.93;;
4595;SDS011;2310;49.978;8.742;2023-03-23T06:48:57;4.50;;;2.40;;
4595;SDS011;2310;49.978;8.742;2023-03-23T06:52:58;3.37;;;1.90;;
4595;SDS011;2310;49.978;8.742;2023-03-23T06:56:59;4.23;;;1.93;;
4595;SDS011;2310;49.978;8.742;2023-03-23T07:00:59;3.93;;;2.27;;
4595;SDS011;2310;49.978;8.742;2023-03-23T07:05:01;4.50;;;2.50;;
4595;SDS011;2310;49.978;8.742;2023-03-23T07:09:03;3.20;;;2.00;;
4595;SDS011;2310;49.978;8.742;2023-03-23T07:13:04;3.80;;;2.00;;
4595;SDS011;2310;49.978;8.742;2023-03-23T07:17:05;4.57;;;2.03;;
4595;SDS011;2310;49.978;8.742;2023-03-23T08:07:58;4.50;;;2.70;;
4595;SDS011;2310;49.978;8.742;2023-03-23T08:12:00;4.50;;;2.50;;
4595;SDS011;2310;49.978;8.742;2023-03-23T08:16:01;3.97;;;2.43;;
4595;SDS011;2310;49.978;8.742;2023-03-23T08:20:04;3.53;;;2.00;;
4595;SDS011;2310;49.978;8.742;2023-03-23T08:24:11;3.40;;;2.33;;
4595;SDS011;2310;49.978;8.742;2023-03-23T08:28:13;3.50;;;2.33;;
4595;SDS011;2310;49.978;8.742;2023-03-23T08:32:14;3.50;;;2.20;;
4595;SDS011;2310;49.978;8.742;2023-03-23T08:36:15;3.20;;;1.80;;
4595;SDS011;2310;49.978;8.742;2023-03-23T08:40:17;3.00;;;1.80;;
4595;SDS011;2310;49.978;8.742;2023-03-23T08:44:19;3.80;;;2.20;;
4595;SDS011;2310;49.978;8.742;2023-03-23T08:48:21;4.53;;;2.60;;
4595;SDS011;2310;49.978;8.742;2023-03-23T08:52:23;4.03;;;2.57;;
4595;SDS011;2310;49.978;8.742;2023-03-23T08:56:25;3.77;;;2.23;;
4595;SDS011;2310;49.978;8.742;2023-03-23T09:00:26;4.23;;;2.30;;
4595;SDS011;2310;49.978;8.742;2023-03-23T09:04:28;6.17;;;2.60;;
4595;SDS011;2310;49.978;8.742;2023-03-23T09:08:30;4.20;;;2.50;;
4595;SDS011;2310;49.978;8.742;2023-03-23T09:12:32;3.67;;;2.20;;
4595;SDS011;2310;49.978;8.742;2023-03-23T09:16:33;3.10;;;2.07;;
4595;SDS011;2310;49.978;8.742;2023-03-23T09:20:34;3.17;;;2.00;;
4595;SDS011;2310;49.978;8.742;2023-03-23T09:24:37;3.53;;;1.80;;
4595;SDS011;2310;49.978;8.742;2023-03-23T09:28:37;3.83;;;2.30;;
4595;SDS011;2310;49.978;8.742;2023-03-23T09:32:38;4.33;;;2.60;;
4595;SDS011;2310;49.978;8.742;2023-03-23T09:36:40;3.97;;;2.80;;
4595;SDS011;2310;49.978;8.742;2023-03-23T09:40:53;3.27;;;2.10;;
4595;SDS011;2310;49.978;8.742;2023-03-23T09:49:08;3.33;;;2.20;;
4595;SDS011;2310;49.978;8.742;2023-03-23T10:01:45;3.60;;;2.00;;
4595;SDS011;2310;49.978;8.742;2023-03-23T10:05:55;2.83;;;1.80;;
4595;SDS011;2310;49.978;8.742;2023-03-23T10:09:56;3.30;;;1.97;;
4595;SDS011;2310;49.978;8.742;2023-03-23T10:18:19;2.77;;;1.60;;
4595;SDS011;2310;49.978;8.742;2023-03-23T10:22:43;4.00;;;2.00;;
4595;SDS011;2310;49.978;8.742;2023-03-23T10:27:05;2.80;;;1.60;;
4595;SDS011;2310;49.978;8.742;2023-03-23T10:31:20;3.50;;;1.87;;
4595;SDS011;2310;49.978;8.742;2023-03-23T10:35:25;3.83;;;1.87;;
4595;SDS011;2310;49.978;8.742;2023-03-23T10:39:44;4.00;;;2.17;;
4595;SDS011;2310;49.978;8.742;2023-03-23T10:43:46;5.30;;;2.60;;
4595;SDS011;2310;49.978;8.742;2023-03-23T10:47:52;4.10;;;2.20;;
4595;SDS011;2310;49.978;8.742;2023-03-23T10:56:28;3.90;;;1.80;;
4595;SDS011;2310;49.978;8.742;2023-03-23T11:00:31;3.77;;;1.90;;
4595;SDS011;2310;49.978;8.742;2023-03-23T11:04:33;3.10;;;1.60;;
4595;SDS011;2310;49.978;8.742;2023-03-23T11:08:36;4.43;;;1.60;;
4595;SDS011;2310;49.978;8.742;2023-03-23T11:12:39;3.10;;;1.70;;
4595;SDS011;2310;49.978;8.742;2023-03-23T11:16:54;3.27;;;1.47;;
4595;SDS011;2310;49.978;8.742;2023-03-23T11:20:56;4.10;;;1.50;;
4595;SDS011;2310;49.978;8.742;2023-03-23T11:25:03;2.60;;;1.43;;
4595;SDS011;2310;49.978;8.742;2023-03-23T11:29:13;3.07;;;1.57;;
4595;SDS011;2310;49.978;8.742;2023-03-23T11:33:16;5.80;;;1.50;;
4595;SDS011;2310;49.978;8.742;2023-03-23T11:37:40;2.80;;;1.57;;
4595;SDS011;2310;49.978;8.742;2023-03-23T11:41:43;2.77;;;1.67;;
4595;SDS011;2310;49.978;8.742;2023-03-23T11:54:04;2.80;;;1.40;;
4595;SDS011;2310;49.978;8.742;2023-03-23T11:58:09;2.97;;;1.40;;
4595;SDS011;2310;49.978;8.742;2023-03-23T12:06:34;3.07;;;1.30;;
4595;SDS011;2310;49.978;8.742;2023-03-23T12:23:57;4.30;;;1.30;;
4595;SDS011;2310;49.978;8.742;2023-03-23T12:40:56;2.73;;;1.57;;
4595;SDS011;2310;49.978;8.742;2023-03-23T12:45:13;3.70;;;1.53;;
4595;SDS011;2310;49.978;8.742;2023-03-23T12:49:29;3.17;;;1.30;;
4595;SDS011;2310;49.978;8.742;2023-03-23T12:53:53;2.87;;;1.60;;
4595;SDS011;2310;49.978;8.742;2023-03-23T13:02:06;3.27;;;1.73;;
4595;SDS011;2310;49.978;8.742;2023-03-23T13:06:18;2.97;;;1.60;;
4595;SDS011;2310;49.978;8.742;2023-03-23T13:10:23;2.83;;;1.70;;
4595;SDS011;2310;49.978;8.742;2023-03-23T13:19:04;3.23;;;1.63;;
4595;SDS011;2310;49.978;8.742;2023-03-23T13:23:28;4.70;;;3.00;;
4595;SDS011;2310;49.978;8.742;2023-03-23T13:27:30;3.23;;;2.23;;
4595;SDS011;2310;49.978;8.742;2023-03-23T13:31:33;3.00;;;1.70;;
4595;SDS011;2310;49.978;8.742;2023-03-23T13:35:36;3.70;;;1.67;;
4595;SDS011;2310;49.978;8.742;2023-03-23T13:40:11;4.03;;;1.73;;
4595;SDS011;2310;49.978;8.742;2023-03-23T13:44:14;3.17;;;1.50;;
4595;SDS011;2310;49.978;8.742;2023-03-23T13:48:20;2.87;;;1.60;;
4595;SDS011;2310;49.978;8.742;2023-03-23T13:53:13;2.37;;;1.23;;
4595;SDS011;2310;49.978;8.742;2023-03-23T13:56:41;3.30;;;1.23;;
4595;SDS011;2310;49.978;8.742;2023-03-23T14:01:12;2.47;;;1.13;;
4595;SDS011;2310;49.978;8.742;2023-03-23T14:05:11;2.50;;;1.07;;
4595;SDS011;2310;49.978;8.742;2023-03-23T14:13:28;4.20;;;2.03;;
4595;SDS011;2310;49.978;8.742;2023-03-23T14:17:39;2.97;;;1.20;;
4595;SDS011;2310;49.978;8.742;2023-03-23T14:21:41;3.60;;;1.63;;
4595;SDS011;2310;49.978;8.742;2023-03-23T14:25:44;3.30;;;1.37;;
4595;SDS011;2310;49.978;8.742;2023-03-23T14:30:04;2.67;;;1.83;;
4595;SDS011;2310;49.978;8.742;2023-03-23T14:34:14;4.77;;;2.23;;
4595;SDS011;2310;49.978;8.742;2023-03-23T14:38:20;3.60;;;1.93;;
4595;SDS011;2310;49.978;8.742;2023-03-23T14:42:28;3.03;;;1.50;;
4595;SDS011;2310;49.978;8.742;2023-03-23T14:46:29;2.87;;;1.67;;
4595;SDS011;2310;49.978;8.742;2023-03-23T14:50:38;3.50;;;1.60;;
4595;SDS011;2310;49.978;8.742;2023-03-23T14:54:41;3.40;;;1.60;;
4595;SDS011;2310;49.978;8.742;2023-03-23T14:58:44;3.00;;;1.20;;
4595;SDS011;2310;49.978;8.742;2023-03-23T15:02:47;2.87;;;1.40;;
4595;SDS011;2310;49.978;8.742;2023-03-23T15:07:00;3.23;;;1.30;;
4595;SDS011;2310;49.978;8.742;2023-03-23T15:15:16;3.37;;;1.50;;
4595;SDS011;2310;49.978;8.742;2023-03-23T15:19:31;2.87;;;1.27;;
4595;SDS011;2310;49.978;8.742;2023-03-23T15:23:40;5.00;;;1.37;;
4595;SDS011;2310;49.978;8.742;2023-03-23T15:27:49;2.63;;;1.37;;
4595;SDS011;2310;49.978;8.742;2023-03-23T15:31:53;2.43;;;1.23;;
4595;SDS011;2310;49.978;8.742;2023-03-23T15:35:56;4.97;;;1.83;;
4595;SDS011;2310;49.978;8.742;2023-03-23T15:39:57;4.37;;;1.40;;
4595;SDS011;2310;49.978;8.742;2023-03-23T15:44:09;3.03;;;1.20;;
4595;SDS011;2310;49.978;8.742;2023-03-23T15:48:12;3.33;;;1.83;;
4595;SDS011;2310;49.978;8.742;2023-03-23T15:52:14;2.80;;;1.30;;
4595;SDS011;2310;49.978;8.742;2023-03-23T15:56:15;3.73;;;1.27;;
4595;SDS011;2310;49.978;8.742;2023-03-23T16:00:17;3.40;;;1.57;;
4595;SDS011;2310;49.978;8.742;2023-03-23T16:04:20;2.43;;;1.30;;
4595;SDS011;2310;49.978;8.742;2023-03-23T16:08:22;4.60;;;1.87;;
4595;SDS011;2310;49.978;8.742;2023-03-23T16:12:23;3.70;;;1.60;;
4595;SDS011;2310;49.978;8.742;2023-03-23T16:16:30;2.73;;;1.47;;
4595;SDS011;2310;49.978;8.742;2023-03-23T16:20:33;3.73;;;1.63;;
4595;SDS011;2310;49.978;8.742;2023-03-23T16:24:35;2.60;;;1.40;;
4595;SDS011;2310;49.978;8.742;2023-03-23T16:28:36;3.20;;;1.40;;
4595;SDS011;2310;49.978;8.742;2023-03-23T16:32:38;2.80;;;1.50;;
4595;SDS011;2310;49.978;8.742;2023-03-23T16:36:39;3.17;;;1.60;;
4595;SDS011;2310;49.978;8.742;2023-03-23T16:40:41;2.70;;;1.57;;
4595;SDS011;2310;49.978;8.742;2023-03-23T16:44:43;2.60;;;1.40;;
4595;SDS011;2310;49.978;8.742;2023-03-23T16:48:45;2.30;;;1.20;;
4595;SDS011;2310;49.978;8.742;2023-03-23T16:52:46;3.60;;;1.90;;
4595;SDS011;2310;49.978;8.742;2023-03-23T16:56:47;2.87;;;1.33;;
4595;SDS011;2310;49.978;8.742;2023-03-23T17:00:49;2.70;;;1.53;;
4595;SDS011;2310;49.978;8.742;2023-03-23T17:04:51;3.57;;;1.70;;
4595;SDS011;2310;49.978;8.742;2023-03-23T17:08:53;4.00;;;1.90;;
4595;SDS011;2310;49.978;8.742;2023-03-23T17:12:54;3.90;;;1.63;;
4595;SDS011;2310;49.978;8.742;2023-03-23T17:16:56;3.20;;;1.60;;
4595;SDS011;2310;49.978;8.742;2023-03-23T17:20:57;3.30;;;1.50;;
4595;SDS011;2310;49.978;8.742;2023-03-23T17:24:58;3.60;;;2.00;;
4595;SDS011;2310;49.978;8.742;2023-03-23T17:28:59;2.93;;;1.77;;
4595;SDS011;2310;49.978;8.742;2023-03-23T17:33:00;4.40;;;1.93;;
4595;SDS011;2310;49.978;8.742;2023-03-23T17:37:02;3.23;;;1.40;;
4595;SDS011;2310;49.978;8.742;2023-03-23T17:41:04;3.10;;;1.77;;
4595;SDS011;2310;49.978;8.742;2023-03-23T17:45:08;3.53;;;1.80;;
4595;SDS011;2310;49.978;8.742;2023-03-23T17:49:10;4.57;;;2.27;;
4595;SDS011;2310;49.978;8.742;2023-03-23T17:53:11;2.93;;;1.80;;
4595;SDS011;2310;49.978;8.742;2023-03-23T17:57:12;3.93;;;1.80;;
4595;SDS011;2310;49.978;8.742;2023-03-23T18:01:14;3.63;;;2.00;;
4595;SDS011;2310;49.978;8.742;2023-03-23T18:05:15;3.23;;;2.00;;
4595;SDS011;2310;49.978;8.742;2023-03-23T18:09:16;3.90;;;2.20;;
4595;SDS011;2310;49.978;8.742;2023-03-23T18:13:18;3.43;;;2.10;;
4595;SDS011;2310;49.978;8.742;2023-03-23T18:17:19;3.20;;;2.03;;
4595;SDS011;2310;49.978;8.742;2023-03-23T18:21:20;5.67;;;2.20;;
4595;SDS011;2310;49.978;8.742;2023-03-23T18:25:23;3.40;;;2.07;;
4595;SDS011;2310;49.978;8.742;2023-03-23T18:29:24;3.60;;;2.20;;
4595;SDS011;2310;49.978;8.742;2023-03-23T18:33:26;3.20;;;2.00;;
4595;SDS011;2310;49.978;8.742;2023-03-23T18:37:27;8.57;;;7.00;;
4595;SDS011;2310;49.978;8.742;2023-03-23T18:41:28;5.80;;;4.30;;
4595;SDS011;2310;49.978;8.742;2023-03-23T18:45:29;6.40;;;5.53;;
4595;SDS011;2310;49.978;8.742;2023-03-23T18:49:30;4.87;;;2.80;;
4595;SDS011;2310;49.978;8.742;2023-03-23T18:53:33;7.50;;;6.67;;
4595;SDS011;2310;49.978;8.742;2023-03-23T18:57:34;8.60;;;7.80;;
4595;SDS011;2310;49.978;8.742;2023-03-23T19:01:35;5.37;;;4.77;;
4595;SDS011;2310;49.978;8.742;2023-03-23T19:05:37;6.23;;;5.63;;
4595;SDS011;2310;49.978;8.742;2023-03-23T19:09:40;7.53;;;6.40;;
4595;SDS011;2310;49.978;8.742;2023-03-23T19:13:43;9.67;;;7.00;;
4595;SDS011;2310;49.978;8.742;2023-03-23T19:17:47;4.87;;;3.40;;
4595;SDS011;2310;49.978;8.742;2023-03-23T19:21:48;5.60;;;4.73;;
4595;SDS011;2310;49.978;8.742;2023-03-23T19:25:50;8.33;;;7.33;;
4595;SDS011;2310;49.978;8.742;2023-03-23T19:29:53;11.13;;;8.93;;
4595;SDS011;2310;49.978;8.742;2023-03-23T19:33:54;5.63;;;5.03;;
4595;SDS011;2310;49.978;8.742;2023-03-23T19:37:55;6.57;;;5.70;;
4595;SDS011;2310;49.978;8.742;2023-03-23T19:41:57;5.90;;;4.50;;
4595;SDS011;2310;49.978;8.742;2023-03-23T19:45:58;10.20;;;4.03;;
4595;SDS011;2310;49.978;8.742;2023-03-23T19:50:00;8.30;;;4.43;;
4595;SDS011;2310;49.978;8.742;2023-03-23T19:54:02;5.83;;;4.60;;
4595;SDS011;2310;49.978;8.742;2023-03-23T19:58:05;7.03;;;5.60;;
4595;SDS011;2310;49.978;8.742;2023-03-23T20:02:09;6.10;;;5.17;;
4595;SDS011;2310;49.978;8.742;2023-03-23T20:06:12;6.13;;;4.97;;
4595;SDS011;2310;49.978;8.742;2023-03-23T20:10:14;6.80;;;6.20;;
4595;SDS011;2310;49.978;8.742;2023-03-23T20:14:16;5.53;;;5.00;;
4595;SDS011;2310;49.978;8.742;2023-03-23T20:18:18;7.63;;;5.23;;
4595;SDS011;2310;49.978;8.742;2023-03-23T20:22:19;6.13;;;5.40;;
4595;SDS011;2310;49.978;8.742;2023-03-23T20:26:23;6.20;;;4.90;;
4595;SDS011;2310;49.978;8.742;2023-03-23T20:30:29;6.83;;;5.90;;
4595;SDS011;2310;49.978;8.742;2023-03-23T20:34:31;5.90;;;5.00;;
4595;SDS011;2310;49.978;8.742;2023-03-23T20:38:33;20.30;;;15.33;;
4595;SDS011;2310;49.978;8.742;2023-03-23T20:42:36;4.77;;;4.23;;
4595;SDS011;2310;49.978;8.742;2023-03-23T20:46:39;6.10;;;4.40;;
4595;SDS011;2310;49.978;8.742;2023-03-23T20:50:41;4.77;;;4.13;;
4595;SDS011;2310;49.978;8.742;2023-03-23T20:54:42;11.83;;;9.73;;
4595;SDS011;2310;49.978;8.742;2023-03-23T20:58:44;5.70;;;3.70;;
4595;SDS011;2310;49.978;8.742;2023-03-23T21:02:47;4.33;;;3.50;;
4595;SDS011;2310;49.978;8.742;2023-03-23T21:06:49;5.17;;;4.00;;
4595;SDS011;2310;49.978;8.742;2023-03-23T21:10:51;4.53;;;3.53;;
4595;SDS011;2310;49.978;8.742;2023-03-23T21:14:53;5.27;;;3.63;;
4595;SDS011;2310;49.978;8.742;2023-03-23T21:18:55;5.10;;;3.70;;
4595;SDS011;2310;49.978;8.742;2023-03-23T21:22:57;5.70;;;4.37;;
4595;SDS011;2310;49.978;8.742;2023-03-23T21:26:59;6.40;;;4.77;;
4595;SDS011;2310;49.978;8.742;2023-03-23T21:31:03;5.47;;;4.10;;
4595;SDS011;2310;49.978;8.742;2023-03-23T21:35:07;5.17;;;4.10;;
4595;SDS011;2310;49.978;8.742;2023-03-23T21:39:09;7.30;;;5.10;;
4595;SDS011;2310;49.978;8.742;2023-03-23T21:43:10;4.90;;;3.70;;
4595;SDS011;2310;49.978;8.742;2023-03-23T21:47:13;6.67;;;4.63;;
4595;SDS011;2310;49.978;8.742;2023-03-23T21:51:16;4.53;;;4.03;;
4595;SDS011;2310;49.978;8.742;2023-03-23T21:55:20;5.10;;;3.83;;
4595;SDS011;2310;49.978;8.742;2023-03-23T21:59:21;4.50;;;3.90;;
4595;SDS011;2310;49.978;8.742;2023-03-23T22:03:23;5.07;;;4.10;;
4595;SDS011;2310;49.978;8.742;2023-03-23T22:07:25;5.60;;;4.33;;
4595;SDS011;2310;49.978;8.742;2023-03-23T22:11:30;5.50;;;3.97;;
4595;SDS011;2310;49.978;8.742;2023-03-23T22:15:32;7.00;;;4.17;;
4595;SDS011;2310;49.978;8.742;2023-03-23T22:19:34;4.90;;;3.97;;
4595;SDS011;2310;49.978;8.742;2023-03-23T22:23:36;5.13;;;3.40;;
4595;SDS011;2310;49.978;8.742;2023-03-23T22:27:40;6.23;;;4.30;;
4595;SDS011;2310;49.978;8.742;2023-03-23T22:31:43;5.33;;;4.10;;
4595;SDS011;2310;49.978;8.742;2023-03-23T22:35:45;5.77;;;3.93;;
4595;SDS011;2310;49.978;8.742;2023-03-23T22:39:48;5.77;;;4.33;;
4595;SDS011;2310;49.978;8.742;2023-03-23T22:43:50;5.67;;;3.53;;
4595;SDS011;2310;49.978;8.742;2023-03-23T22:47:51;5.20;;;4.13;;
4595;SDS011;2310;49.978;8.742;2023-03-23T22:51:53;5.90;;;3.50;;
4595;SDS011;2310;49.978;8.742;2023-03-23T22:55:55;7.10;;;3.63;;
4595;SDS011;2310;49.978;8.742;2023-03-23T22:59:57;5.90;;;4.00;;
4595;SDS011;2310;49.978;8.742;2023-03-23T23:03:59;5.60;;;3.60;;
4595;SDS011;2310;49.978;8.742;2023-03-23T23:08:01;5.30;;;3.60;;
4595;SDS011;2310;49.978;8.742;2023-03-23T23:12:02;5.63;;;3.83;;
4595;SDS011;2310;49.978;8.742;2023-03-23T23:16:04;5.50;;;3.90;;
4595;SDS011;2310;49.978;8.742;2023-03-23T23:20:07;5.97;;;4.00;;
4595;SDS011;2310;49.978;8.742;2023-03-23T23:24:11;5.50;;;4.20;;
4595;SDS011;2310;49.978;8.742;2023-03-23T23:28:12;4.57;;;4.07;;
4595;SDS011;2310;49.978;8.742;2023-03-23T23:32:13;7.87;;;4.37;;
4595;SDS011;2310;49.978;8.742;2023-03-23T23:36:15;5.87;;;4.53;;
4595;SDS011;2310;49.978;8.742;2023-03-23T23:40:18;7.30;;;4.20;;
4595;SDS011;2310;49.978;8.742;2023-03-23T23:44:20;6.87;;;4.33;;
4595;SDS011;2310;49.978;8.742;2023-03-23T23:48:21;4.80;;;3.77;;
4595;SDS011;2310;49.978;8.742;2023-03-23T23:52:22;5.30;;;4.10;;
4595;SDS011;2310;49.978;8.742;2023-03-23T23:56:24;5.57;;;4.33;;
